sensor_id;sensor_type;location;lat;lon;timestamp;temperature;humidity
21039;DHT22;10678;51.002;4.786;2023-05-07T00:01:57;16.40;99.90
21039;DHT22;10678;51.002;4.786;2023-05-07T00:04:22;16.40;99.90
21039;DHT22;10678;51.002;4.786;2023-05-07T00:06:48;16.50;99.90
21039;DHT22;10678;51.002;4.786;2023-05-07T00:09:13;16.60;99.90
21039;DHT22;10678;51.002;4.786;2023-05-07T00:11:39;16.50;99.90
21039;DHT22;10678;51.002;4.786;2023-05-07T00:14:05;16.50;99.90
21039;DHT22;10678;51.002;4.786;2023-05-07T00:16:31;16.60;99.90
21039;DHT22;10678;51.002;4.786;2023-05-07T00:18:57;16.60;99.90
21039;DHT22;10678;51.002;4.786;2023-05-07T00:21:22;16.60;99.90
21039;DHT22;10678;51.002;4.786;2023-05-07T00:23:48;16.60;99.90
21039;DHT22;10678;51.002;4.786;2023-05-07T00:26:14;16.60;99.90
21039;DHT22;10678;51.002;4.786;2023-05-07T00:28:39;16.60;99.90
21039;DHT22;10678;51.002;4.786;2023-05-07T00:31:05;16.70;99.90
21039;DHT22;10678;51.002;4.786;2023-05-07T00:33:31;16.60;99.90
21039;DHT22;10678;51.002;4.786;2023-05-07T00:35:56;16.60;99.90
21039;DHT22;10678;51.002;4.786;2023-05-07T00:38:22;16.60;99.90
21039;DHT22;10678;51.002;4.786;2023-05-07T00:40:47;16.60;99.90
21039;DHT22;10678;51.002;4.786;2023-05-07T00:43:13;16.60;99.90
21039;DHT22;10678;51.002;4.786;2023-05-07T00:45:39;16.60;99.90
21039;DHT22;10678;51.002;4.786;2023-05-07T00:48:05;16.50;99.90
21039;DHT22;10678;51.002;4.786;2023-05-07T00:50:31;16.60;99.90
21039;DHT22;10678;51.002;4.786;2023-05-07T00:52:57;16.50;99.90
21039;DHT22;10678;51.002;4.786;2023-05-07T00:55:24;16.50;99.90
21039;DHT22;10678;51.002;4.786;2023-05-07T00:57:50;16.60;99.90
21039;DHT22;10678;51.002;4.786;2023-05-07T01:00:16;16.50;99.90
21039;DHT22;10678;51.002;4.786;2023-05-07T01:02:43;16.50;99.90
21039;DHT22;10678;51.002;4.786;2023-05-07T01:05:11;16.50;99.90
21039;DHT22;10678;51.002;4.786;2023-05-07T01:07:40;16.40;99.90
21039;DHT22;10678;51.002;4.786;2023-05-07T01:10:06;16.40;99.90
21039;DHT22;10678;51.002;4.786;2023-05-07T01:12:33;16.40;99.90
21039;DHT22;10678;51.002;4.786;2023-05-07T01:14:59;16.40;99.90
21039;DHT22;10678;51.002;4.786;2023-05-07T01:17:26;16.50;99.90
21039;DHT22;10678;51.002;4.786;2023-05-07T01:19:51;16.50;99.90
21039;DHT22;10678;51.002;4.786;2023-05-07T01:22:29;16.40;99.90
21039;DHT22;10678;51.002;4.786;2023-05-07T01:24:57;16.40;99.90
21039;DHT22;10678;51.002;4.786;2023-05-07T01:27:25;16.40;99.90
21039;DHT22;10678;51.002;4.786;2023-05-07T01:29:50;16.40;99.90
21039;DHT22;10678;51.002;4.786;2023-05-07T01:32:19;16.40;99.90
21039;DHT22;10678;51.002;4.786;2023-05-07T01:34:48;16.30;99.90
21039;DHT22;10678;51.002;4.786;2023-05-07T01:37:15;16.30;99.90
21039;DHT22;10678;51.002;4.786;2023-05-07T01:39:42;16.30;99.90
21039;DHT22;10678;51.002;4.786;2023-05-07T01:42:08;16.30;99.90
21039;DHT22;10678;51.002;4.786;2023-05-07T01:44:34;16.20;99.90
21039;DHT22;10678;51.002;4.786;2023-05-07T01:47:01;16.20;99.90
21039;DHT22;10678;51.002;4.786;2023-05-07T01:49:28;16.20;99.90
21039;DHT22;10678;51.002;4.786;2023-05-07T01:51:53;16.20;99.90
21039;DHT22;10678;51.002;4.786;2023-05-07T01:54:19;16.10;99.90
21039;DHT22;10678;51.002;4.786;2023-05-07T01:56:45;16.20;99.90
21039;DHT22;10678;51.002;4.786;2023-05-07T01:59:13;16.20;99.90
21039;DHT22;10678;51.002;4.786;2023-05-07T02:01:39;16.20;99.90
21039;DHT22;10678;51.002;4.786;2023-05-07T02:04:04;16.20;99.90
21039;DHT22;10678;51.002;4.786;2023-05-07T02:06:30;16.20;99.90
21039;DHT22;10678;51.002;4.786;2023-05-07T02:08:56;16.20;99.90
21039;DHT22;10678;51.002;4.786;2023-05-07T02:11:22;16.20;99.90
21039;DHT22;10678;51.002;4.786;2023-05-07T02:13:47;16.30;99.90
21039;DHT22;10678;51.002;4.786;2023-05-07T02:16:13;16.20;99.90
21039;DHT22;10678;51.002;4.786;2023-05-07T02:18:39;16.20;99.90
21039;DHT22;10678;51.002;4.786;2023-05-07T02:21:05;16.20;99.90
21039;DHT22;10678;51.002;4.786;2023-05-07T02:23:31;16.20;99.90
21039;DHT22;10678;51.002;4.786;2023-05-07T02:25:56;16.30;99.90
21039;DHT22;10678;51.002;4.786;2023-05-07T02:28:22;16.20;99.90
21039;DHT22;10678;51.002;4.786;2023-05-07T02:30:47;16.20;99.90
21039;DHT22;10678;51.002;4.786;2023-05-07T02:33:13;16.30;99.90
21039;DHT22;10678;51.002;4.786;2023-05-07T02:35:39;16.30;99.90
21039;DHT22;10678;51.002;4.786;2023-05-07T02:38:05;16.30;99.90
21039;DHT22;10678;51.002;4.786;2023-05-07T02:40:31;16.20;99.90
21039;DHT22;10678;51.002;4.786;2023-05-07T02:42:59;16.20;99.90
21039;DHT22;10678;51.002;4.786;2023-05-07T02:45:25;16.30;99.90
21039;DHT22;10678;51.002;4.786;2023-05-07T02:47:50;16.20;99.90
21039;DHT22;10678;51.002;4.786;2023-05-07T02:50:16;16.20;99.90
21039;DHT22;10678;51.002;4.786;2023-05-07T02:52:42;16.20;99.90
21039;DHT22;10678;51.002;4.786;2023-05-07T02:55:08;16.20;99.90
21039;DHT22;10678;51.002;4.786;2023-05-07T02:57:33;16.20;99.90
21039;DHT22;10678;51.002;4.786;2023-05-07T02:59:59;16.20;99.90
21039;DHT22;10678;51.002;4.786;2023-05-07T03:02:35;16.30;99.90
21039;DHT22;10678;51.002;4.786;2023-05-07T03:05:00;16.30;99.90
21039;DHT22;10678;51.002;4.786;2023-05-07T03:07:27;16.20;99.90
21039;DHT22;10678;51.002;4.786;2023-05-07T03:09:52;16.20;99.90
21039;DHT22;10678;51.002;4.786;2023-05-07T03:12:19;16.20;99.90
21039;DHT22;10678;51.002;4.786;2023-05-07T03:14:44;16.20;99.90
21039;DHT22;10678;51.002;4.786;2023-05-07T03:17:10;16.10;99.90
21039;DHT22;10678;51.002;4.786;2023-05-07T03:19:35;16.10;99.90
21039;DHT22;10678;51.002;4.786;2023-05-07T03:22:01;16.10;99.90
21039;DHT22;10678;51.002;4.786;2023-05-07T03:24:27;16.10;99.90
21039;DHT22;10678;51.002;4.786;2023-05-07T03:26:52;16.10;99.90
21039;DHT22;10678;51.002;4.786;2023-05-07T03:29:18;16.10;99.90
21039;DHT22;10678;51.002;4.786;2023-05-07T03:31:44;16.20;99.90
21039;DHT22;10678;51.002;4.786;2023-05-07T03:34:10;16.10;99.90
21039;DHT22;10678;51.002;4.786;2023-05-07T03:36:36;16.10;99.90
21039;DHT22;10678;51.002;4.786;2023-05-07T03:39:01;16.10;99.90
21039;DHT22;10678;51.002;4.786;2023-05-07T03:41:27;16.10;99.90
21039;DHT22;10678;51.002;4.786;2023-05-07T03:43:52;16.10;99.90
21039;DHT22;10678;51.002;4.786;2023-05-07T03:46:18;16.20;99.90
21039;DHT22;10678;51.002;4.786;2023-05-07T03:48:44;16.20;99.90
21039;DHT22;10678;51.002;4.786;2023-05-07T03:51:09;16.20;99.90
21039;DHT22;10678;51.002;4.786;2023-05-07T03:53:35;16.20;99.90
21039;DHT22;10678;51.002;4.786;2023-05-07T03:56:01;16.20;99.90
21039;DHT22;10678;51.002;4.786;2023-05-07T03:58:26;16.20;99.90
21039;DHT22;10678;51.002;4.786;2023-05-07T04:00:52;16.20;99.90
21039;DHT22;10678;51.002;4.786;2023-05-07T04:03:17;16.20;99.90
21039;DHT22;10678;51.002;4.786;2023-05-07T04:05:43;16.20;99.90
21039;DHT22;10678;51.002;4.786;2023-05-07T04:08:09;16.20;99.90
21039;DHT22;10678;51.002;4.786;2023-05-07T04:10:34;16.20;99.90
21039;DHT22;10678;51.002;4.786;2023-05-07T04:13:00;16.20;99.90
21039;DHT22;10678;51.002;4.786;2023-05-07T04:15:26;16.20;99.90
21039;DHT22;10678;51.002;4.786;2023-05-07T04:17:51;16.20;99.90
21039;DHT22;10678;51.002;4.786;2023-05-07T04:20:17;16.20;99.90
21039;DHT22;10678;51.002;4.786;2023-05-07T04:22:43;16.20;99.90
21039;DHT22;10678;51.002;4.786;2023-05-07T04:25:09;16.20;99.90
21039;DHT22;10678;51.002;4.786;2023-05-07T04:27:35;16.20;99.90
21039;DHT22;10678;51.002;4.786;2023-05-07T04:30:02;16.20;99.90
21039;DHT22;10678;51.002;4.786;2023-05-07T04:32:28;16.20;99.90
21039;DHT22;10678;51.002;4.786;2023-05-07T04:34:55;16.20;99.90
21039;DHT22;10678;51.002;4.786;2023-05-07T04:37:21;16.20;99.90
21039;DHT22;10678;51.002;4.786;2023-05-07T04:39:47;16.20;99.90
21039;DHT22;10678;51.002;4.786;2023-05-07T04:42:16;16.10;99.90
21039;DHT22;10678;51.002;4.786;2023-05-07T04:44:44;15.90;99.90
21039;DHT22;10678;51.002;4.786;2023-05-07T04:47:10;16.00;99.90
21039;DHT22;10678;51.002;4.786;2023-05-07T04:49:37;16.00;99.90
21039;DHT22;10678;51.002;4.786;2023-05-07T04:52:03;16.10;99.90
21039;DHT22;10678;51.002;4.786;2023-05-07T04:54:29;16.20;99.90
21039;DHT22;10678;51.002;4.786;2023-05-07T04:56:55;16.20;99.90
21039;DHT22;10678;51.002;4.786;2023-05-07T04:59:20;16.20;99.90
21039;DHT22;10678;51.002;4.786;2023-05-07T05:01:46;16.30;99.90
21039;DHT22;10678;51.002;4.786;2023-05-07T05:04:12;16.30;99.90
21039;DHT22;10678;51.002;4.786;2023-05-07T05:06:38;16.30;99.90
21039;DHT22;10678;51.002;4.786;2023-05-07T05:09:04;16.40;99.90
21039;DHT22;10678;51.002;4.786;2023-05-07T05:11:30;16.40;99.90
21039;DHT22;10678;51.002;4.786;2023-05-07T05:13:56;16.50;99.90
21039;DHT22;10678;51.002;4.786;2023-05-07T05:16:22;16.60;99.90
21039;DHT22;10678;51.002;4.786;2023-05-07T05:18:47;16.70;99.90
21039;DHT22;10678;51.002;4.786;2023-05-07T05:21:13;16.80;99.90
21039;DHT22;10678;51.002;4.786;2023-05-07T05:23:39;16.80;99.90
21039;DHT22;10678;51.002;4.786;2023-05-07T05:26:04;17.00;99.90
21039;DHT22;10678;51.002;4.786;2023-05-07T05:28:30;17.10;99.90
21039;DHT22;10678;51.002;4.786;2023-05-07T05:30:56;17.10;99.90
21039;DHT22;10678;51.002;4.786;2023-05-07T05:33:21;17.30;99.90
21039;DHT22;10678;51.002;4.786;2023-05-07T05:35:47;17.40;99.90
21039;DHT22;10678;51.002;4.786;2023-05-07T05:38:13;17.60;99.90
21039;DHT22;10678;51.002;4.786;2023-05-07T05:40:38;17.80;99.90
21039;DHT22;10678;51.002;4.786;2023-05-07T05:43:05;17.70;99.90
21039;DHT22;10678;51.002;4.786;2023-05-07T05:45:30;18.00;99.90
21039;DHT22;10678;51.002;4.786;2023-05-07T05:47:56;18.10;99.90
21039;DHT22;10678;51.002;4.786;2023-05-07T05:50:22;18.10;99.90
21039;DHT22;10678;51.002;4.786;2023-05-07T05:52:48;18.10;99.90
21039;DHT22;10678;51.002;4.786;2023-05-07T05:55:14;18.20;99.90
21039;DHT22;10678;51.002;4.786;2023-05-07T05:57:40;18.30;99.90
21039;DHT22;10678;51.002;4.786;2023-05-07T06:00:06;18.30;99.90
21039;DHT22;10678;51.002;4.786;2023-05-07T06:02:33;18.20;99.90
21039;DHT22;10678;51.002;4.786;2023-05-07T06:04:58;18.10;99.90
21039;DHT22;10678;51.002;4.786;2023-05-07T06:07:24;18.00;99.90
21039;DHT22;10678;51.002;4.786;2023-05-07T06:09:50;18.00;99.90
21039;DHT22;10678;51.002;4.786;2023-05-07T06:12:15;18.00;99.90
21039;DHT22;10678;51.002;4.786;2023-05-07T06:14:43;18.00;99.90
21039;DHT22;10678;51.002;4.786;2023-05-07T06:17:09;18.00;99.90
21039;DHT22;10678;51.002;4.786;2023-05-07T06:19:34;18.00;99.90
21039;DHT22;10678;51.002;4.786;2023-05-07T06:22:00;18.20;99.90
21039;DHT22;10678;51.002;4.786;2023-05-07T06:24:27;18.30;99.90
21039;DHT22;10678;51.002;4.786;2023-05-07T06:26:52;18.30;99.90
21039;DHT22;10678;51.002;4.786;2023-05-07T06:29:18;18.40;99.90
21039;DHT22;10678;51.002;4.786;2023-05-07T06:31:44;18.50;99.90
21039;DHT22;10678;51.002;4.786;2023-05-07T06:34:10;18.50;99.90
21039;DHT22;10678;51.002;4.786;2023-05-07T06:36:35;18.80;99.90
21039;DHT22;10678;51.002;4.786;2023-05-07T06:39:01;18.90;99.90
21039;DHT22;10678;51.002;4.786;2023-05-07T06:41:27;19.10;99.90
21039;DHT22;10678;51.002;4.786;2023-05-07T06:43:52;19.30;99.90
21039;DHT22;10678;51.002;4.786;2023-05-07T06:46:18;19.50;99.90
21039;DHT22;10678;51.002;4.786;2023-05-07T06:48:44;19.50;99.90
21039;DHT22;10678;51.002;4.786;2023-05-07T06:51:09;19.70;99.90
21039;DHT22;10678;51.002;4.786;2023-05-07T06:53:35;19.80;99.90
21039;DHT22;10678;51.002;4.786;2023-05-07T06:56:01;20.10;99.90
21039;DHT22;10678;51.002;4.786;2023-05-07T06:58:26;20.40;99.90
21039;DHT22;10678;51.002;4.786;2023-05-07T07:00:52;20.50;99.90
21039;DHT22;10678;51.002;4.786;2023-05-07T07:03:17;20.50;99.90
21039;DHT22;10678;51.002;4.786;2023-05-07T07:05:43;20.40;99.90
21039;DHT22;10678;51.002;4.786;2023-05-07T07:08:09;20.20;99.90
21039;DHT22;10678;51.002;4.786;2023-05-07T07:10:35;20.00;99.90
21039;DHT22;10678;51.002;4.786;2023-05-07T07:13:01;20.00;99.90
21039;DHT22;10678;51.002;4.786;2023-05-07T07:15:27;19.90;99.90
21039;DHT22;10678;51.002;4.786;2023-05-07T07:17:52;19.80;99.90
21039;DHT22;10678;51.002;4.786;2023-05-07T07:20:18;19.70;99.90
21039;DHT22;10678;51.002;4.786;2023-05-07T07:22:44;19.60;99.90
21039;DHT22;10678;51.002;4.786;2023-05-07T07:25:09;19.60;99.90
21039;DHT22;10678;51.002;4.786;2023-05-07T07:27:36;19.50;99.90
21039;DHT22;10678;51.002;4.786;2023-05-07T07:30:02;19.60;99.90
21039;DHT22;10678;51.002;4.786;2023-05-07T07:32:28;19.70;99.90
21039;DHT22;10678;51.002;4.786;2023-05-07T07:34:54;19.80;99.90
21039;DHT22;10678;51.002;4.786;2023-05-07T07:37:20;19.80;99.90
21039;DHT22;10678;51.002;4.786;2023-05-07T07:39:46;19.80;99.90
21039;DHT22;10678;51.002;4.786;2023-05-07T07:42:11;19.80;99.90
21039;DHT22;10678;51.002;4.786;2023-05-07T07:44:37;19.80;99.90
21039;DHT22;10678;51.002;4.786;2023-05-07T07:47:04;19.90;99.90
21039;DHT22;10678;51.002;4.786;2023-05-07T07:49:30;19.90;99.90
21039;DHT22;10678;51.002;4.786;2023-05-07T07:51:56;19.90;99.90
21039;DHT22;10678;51.002;4.786;2023-05-07T07:54:25;20.00;99.90
21039;DHT22;10678;51.002;4.786;2023-05-07T07:56:51;20.10;99.90
21039;DHT22;10678;51.002;4.786;2023-05-07T07:59:17;20.10;99.90
21039;DHT22;10678;51.002;4.786;2023-05-07T08:01:45;20.20;99.90
21039;DHT22;10678;51.002;4.786;2023-05-07T08:04:11;20.30;99.90
21039;DHT22;10678;51.002;4.786;2023-05-07T08:06:37;20.30;99.90
21039;DHT22;10678;51.002;4.786;2023-05-07T08:09:03;20.40;99.90
21039;DHT22;10678;51.002;4.786;2023-05-07T08:11:28;20.50;99.90
21039;DHT22;10678;51.002;4.786;2023-05-07T08:13:54;20.60;99.90
21039;DHT22;10678;51.002;4.786;2023-05-07T08:16:20;20.70;99.90
21039;DHT22;10678;51.002;4.786;2023-05-07T08:18:46;20.60;99.90
21039;DHT22;10678;51.002;4.786;2023-05-07T08:21:12;20.60;99.90
21039;DHT22;10678;51.002;4.786;2023-05-07T08:23:38;20.70;99.90
21039;DHT22;10678;51.002;4.786;2023-05-07T08:26:03;20.80;99.90
21039;DHT22;10678;51.002;4.786;2023-05-07T08:28:29;20.90;99.90
21039;DHT22;10678;51.002;4.786;2023-05-07T08:30:55;20.90;99.90
21039;DHT22;10678;51.002;4.786;2023-05-07T08:33:22;20.80;99.90
21039;DHT22;10678;51.002;4.786;2023-05-07T08:35:48;20.90;99.90
21039;DHT22;10678;51.002;4.786;2023-05-07T08:38:14;20.80;99.90
21039;DHT22;10678;51.002;4.786;2023-05-07T08:40:39;21.00;99.90
21039;DHT22;10678;51.002;4.786;2023-05-07T08:43:07;21.20;99.90
21039;DHT22;10678;51.002;4.786;2023-05-07T08:45:35;21.20;99.90
21039;DHT22;10678;51.002;4.786;2023-05-07T08:48:08;21.30;99.90
21039;DHT22;10678;51.002;4.786;2023-05-07T08:50:36;21.50;99.90
21039;DHT22;10678;51.002;4.786;2023-05-07T08:53:03;21.50;99.90
21039;DHT22;10678;51.002;4.786;2023-05-07T08:55:29;21.60;99.90
21039;DHT22;10678;51.002;4.786;2023-05-07T08:57:55;21.80;99.90
21039;DHT22;10678;51.002;4.786;2023-05-07T09:00:21;22.10;99.90
21039;DHT22;10678;51.002;4.786;2023-05-07T09:02:47;22.20;99.90
21039;DHT22;10678;51.002;4.786;2023-05-07T09:05:13;22.50;99.90
21039;DHT22;10678;51.002;4.786;2023-05-07T09:07:39;22.80;99.90
21039;DHT22;10678;51.002;4.786;2023-05-07T09:10:05;23.00;99.90
21039;DHT22;10678;51.002;4.786;2023-05-07T09:12:31;23.00;99.90
21039;DHT22;10678;51.002;4.786;2023-05-07T09:14:58;22.90;99.90
21039;DHT22;10678;51.002;4.786;2023-05-07T09:17:24;22.60;99.90
21039;DHT22;10678;51.002;4.786;2023-05-07T09:19:51;22.60;99.90
21039;DHT22;10678;51.002;4.786;2023-05-07T09:22:19;22.60;99.90
21039;DHT22;10678;51.002;4.786;2023-05-07T09:24:49;22.60;99.90
21039;DHT22;10678;51.002;4.786;2023-05-07T09:27:18;22.60;99.90
21039;DHT22;10678;51.002;4.786;2023-05-07T09:29:44;22.60;99.90
21039;DHT22;10678;51.002;4.786;2023-05-07T09:32:10;22.40;99.90
21039;DHT22;10678;51.002;4.786;2023-05-07T09:34:36;22.30;99.90
21039;DHT22;10678;51.002;4.786;2023-05-07T09:37:05;22.00;99.90
21039;DHT22;10678;51.002;4.786;2023-05-07T09:39:44;22.10;99.90
21039;DHT22;10678;51.002;4.786;2023-05-07T09:42:11;22.00;99.90
21039;DHT22;10678;51.002;4.786;2023-05-07T09:44:37;22.20;99.90
21039;DHT22;10678;51.002;4.786;2023-05-07T09:47:05;22.10;99.90
21039;DHT22;10678;51.002;4.786;2023-05-07T09:49:34;22.00;99.90
21039;DHT22;10678;51.002;4.786;2023-05-07T09:52:03;22.00;99.90
21039;DHT22;10678;51.002;4.786;2023-05-07T09:54:29;21.90;99.90
21039;DHT22;10678;51.002;4.786;2023-05-07T09:56:55;21.90;99.90
21039;DHT22;10678;51.002;4.786;2023-05-07T09:59:22;21.70;99.90
21039;DHT22;10678;51.002;4.786;2023-05-07T10:01:49;21.70;99.90
21039;DHT22;10678;51.002;4.786;2023-05-07T10:04:16;21.50;99.90
21039;DHT22;10678;51.002;4.786;2023-05-07T10:06:43;21.50;99.90
21039;DHT22;10678;51.002;4.786;2023-05-07T10:09:10;21.60;99.90
21039;DHT22;10678;51.002;4.786;2023-05-07T10:11:37;21.60;99.90
21039;DHT22;10678;51.002;4.786;2023-05-07T10:14:05;21.40;99.90
21039;DHT22;10678;51.002;4.786;2023-05-07T10:16:35;21.40;99.90
21039;DHT22;10678;51.002;4.786;2023-05-07T10:19:05;21.40;99.90
21039;DHT22;10678;51.002;4.786;2023-05-07T10:21:36;21.30;99.90
21039;DHT22;10678;51.002;4.786;2023-05-07T10:24:09;21.30;99.90
21039;DHT22;10678;51.002;4.786;2023-05-07T10:26:44;21.30;99.90
21039;DHT22;10678;51.002;4.786;2023-05-07T10:29:33;21.30;99.90
21039;DHT22;10678;51.002;4.786;2023-05-07T10:35:00;21.40;99.90
21039;DHT22;10678;51.002;4.786;2023-05-07T10:37:29;21.50;99.90
21039;DHT22;10678;51.002;4.786;2023-05-07T10:39:55;21.50;99.90
21039;DHT22;10678;51.002;4.786;2023-05-07T10:42:22;21.60;99.90
21039;DHT22;10678;51.002;4.786;2023-05-07T10:44:48;21.60;99.90
21039;DHT22;10678;51.002;4.786;2023-05-07T10:47:16;21.40;99.90
21039;DHT22;10678;51.002;4.786;2023-05-07T10:54:42;21.40;99.90
21039;DHT22;10678;51.002;4.786;2023-05-07T10:59:59;21.60;99.90
21039;DHT22;10678;51.002;4.786;2023-05-07T11:05:41;21.70;99.90
21039;DHT22;10678;51.002;4.786;2023-05-07T11:08:07;21.70;99.90
21039;DHT22;10678;51.002;4.786;2023-05-07T11:13:15;21.80;99.90
21039;DHT22;10678;51.002;4.786;2023-05-07T11:15:46;21.90;99.90
21039;DHT22;10678;51.002;4.786;2023-05-07T11:18:14;21.90;99.90
21039;DHT22;10678;51.002;4.786;2023-05-07T11:26:07;22.00;99.90
21039;DHT22;10678;51.002;4.786;2023-05-07T11:28:40;22.10;99.90
21039;DHT22;10678;51.002;4.786;2023-05-07T11:31:07;22.00;99.90
21039;DHT22;10678;51.002;4.786;2023-05-07T11:33:33;22.10;99.90
21039;DHT22;10678;51.002;4.786;2023-05-07T11:36:00;22.10;99.90
21039;DHT22;10678;51.002;4.786;2023-05-07T11:38:26;22.00;99.90
21039;DHT22;10678;51.002;4.786;2023-05-07T11:40:56;21.80;99.90
21039;DHT22;10678;51.002;4.786;2023-05-07T11:43:22;21.90;99.90
21039;DHT22;10678;51.002;4.786;2023-05-07T11:45:49;22.00;99.90
21039;DHT22;10678;51.002;4.786;2023-05-07T11:48:15;22.20;99.90
21039;DHT22;10678;51.002;4.786;2023-05-07T11:50:54;22.30;99.90
21039;DHT22;10678;51.002;4.786;2023-05-07T11:53:25;22.30;99.90
21039;DHT22;10678;51.002;4.786;2023-05-07T11:55:57;22.50;99.90
21039;DHT22;10678;51.002;4.786;2023-05-07T11:58:24;22.60;99.90
21039;DHT22;10678;51.002;4.786;2023-05-07T12:00:53;22.60;99.90
21039;DHT22;10678;51.002;4.786;2023-05-07T12:03:20;22.50;99.90
21039;DHT22;10678;51.002;4.786;2023-05-07T12:05:46;22.50;99.90
21039;DHT22;10678;51.002;4.786;2023-05-07T12:08:18;22.50;99.90
21039;DHT22;10678;51.002;4.786;2023-05-07T12:10:46;22.40;99.90
21039;DHT22;10678;51.002;4.786;2023-05-07T12:13:17;22.50;99.90
21039;DHT22;10678;51.002;4.786;2023-05-07T12:15:43;22.70;99.90
21039;DHT22;10678;51.002;4.786;2023-05-07T12:18:10;22.70;99.90
21039;DHT22;10678;51.002;4.786;2023-05-07T12:20:37;22.80;99.90
21039;DHT22;10678;51.002;4.786;2023-05-07T12:23:03;22.90;99.90
21039;DHT22;10678;51.002;4.786;2023-05-07T12:25:35;22.90;99.90
21039;DHT22;10678;51.002;4.786;2023-05-07T12:28:02;22.90;99.90
21039;DHT22;10678;51.002;4.786;2023-05-07T12:30:39;22.90;99.90
21039;DHT22;10678;51.002;4.786;2023-05-07T12:33:05;22.90;99.90
21039;DHT22;10678;51.002;4.786;2023-05-07T12:35:35;23.00;99.90
21039;DHT22;10678;51.002;4.786;2023-05-07T12:38:01;22.90;99.90
21039;DHT22;10678;51.002;4.786;2023-05-07T12:40:39;23.00;99.90
21039;DHT22;10678;51.002;4.786;2023-05-07T12:43:05;23.00;99.90
21039;DHT22;10678;51.002;4.786;2023-05-07T12:45:30;22.90;99.90
21039;DHT22;10678;51.002;4.786;2023-05-07T12:47:57;22.90;99.90
21039;DHT22;10678;51.002;4.786;2023-05-07T12:50:26;22.90;99.90
21039;DHT22;10678;51.002;4.786;2023-05-07T12:52:56;22.80;99.90
21039;DHT22;10678;51.002;4.786;2023-05-07T12:55:21;22.90;99.90
21039;DHT22;10678;51.002;4.786;2023-05-07T12:57:51;22.70;99.90
21039;DHT22;10678;51.002;4.786;2023-05-07T13:00:32;22.60;99.90
21039;DHT22;10678;51.002;4.786;2023-05-07T13:02:58;22.60;99.90
21039;DHT22;10678;51.002;4.786;2023-05-07T13:05:24;22.50;99.90
21039;DHT22;10678;51.002;4.786;2023-05-07T13:07:56;22.60;99.90
21039;DHT22;10678;51.002;4.786;2023-05-07T13:10:22;22.60;99.90
21039;DHT22;10678;51.002;4.786;2023-05-07T13:12:49;22.60;99.90
21039;DHT22;10678;51.002;4.786;2023-05-07T13:15:14;22.40;99.90
21039;DHT22;10678;51.002;4.786;2023-05-07T13:17:40;22.50;99.90
21039;DHT22;10678;51.002;4.786;2023-05-07T13:20:06;22.50;99.90
21039;DHT22;10678;51.002;4.786;2023-05-07T13:22:33;22.50;99.90
21039;DHT22;10678;51.002;4.786;2023-05-07T13:24:59;22.40;99.90
21039;DHT22;10678;51.002;4.786;2023-05-07T13:27:24;22.40;99.90
21039;DHT22;10678;51.002;4.786;2023-05-07T13:29:51;22.40;99.90
21039;DHT22;10678;51.002;4.786;2023-05-07T13:32:17;22.20;99.90
21039;DHT22;10678;51.002;4.786;2023-05-07T13:34:42;22.30;99.90
21039;DHT22;10678;51.002;4.786;2023-05-07T13:37:08;22.40;99.90
21039;DHT22;10678;51.002;4.786;2023-05-07T13:39:34;22.60;99.90
21039;DHT22;10678;51.002;4.786;2023-05-07T13:41:59;22.60;99.90
21039;DHT22;10678;51.002;4.786;2023-05-07T13:44:26;22.80;99.90
21039;DHT22;10678;51.002;4.786;2023-05-07T13:46:52;22.90;99.90
21039;DHT22;10678;51.002;4.786;2023-05-07T13:49:17;23.00;99.90
21039;DHT22;10678;51.002;4.786;2023-05-07T13:51:43;23.10;99.90
21039;DHT22;10678;51.002;4.786;2023-05-07T13:54:09;23.00;99.90
21039;DHT22;10678;51.002;4.786;2023-05-07T13:56:34;23.10;99.90
21039;DHT22;10678;51.002;4.786;2023-05-07T13:59:00;23.10;99.90
21039;DHT22;10678;51.002;4.786;2023-05-07T14:01:26;23.30;99.90
21039;DHT22;10678;51.002;4.786;2023-05-07T14:03:52;23.20;99.90
21039;DHT22;10678;51.002;4.786;2023-05-07T14:06:18;23.30;99.90
21039;DHT22;10678;51.002;4.786;2023-05-07T14:08:43;23.00;99.90
21039;DHT22;10678;51.002;4.786;2023-05-07T14:11:09;23.20;99.90
21039;DHT22;10678;51.002;4.786;2023-05-07T14:13:34;23.30;99.90
21039;DHT22;10678;51.002;4.786;2023-05-07T14:16:00;23.30;99.90
21039;DHT22;10678;51.002;4.786;2023-05-07T14:18:26;23.40;99.90
21039;DHT22;10678;51.002;4.786;2023-05-07T14:20:54;23.30;99.90
21039;DHT22;10678;51.002;4.786;2023-05-07T14:23:19;23.30;99.90
21039;DHT22;10678;51.002;4.786;2023-05-07T14:25:47;23.10;99.90
21039;DHT22;10678;51.002;4.786;2023-05-07T14:28:13;23.00;99.90
21039;DHT22;10678;51.002;4.786;2023-05-07T14:30:39;23.00;99.90
21039;DHT22;10678;51.002;4.786;2023-05-07T14:33:04;23.00;99.90
21039;DHT22;10678;51.002;4.786;2023-05-07T14:35:30;23.00;99.90
21039;DHT22;10678;51.002;4.786;2023-05-07T14:37:55;22.80;99.90
21039;DHT22;10678;51.002;4.786;2023-05-07T14:40:21;22.60;99.90
21039;DHT22;10678;51.002;4.786;2023-05-07T14:42:47;22.60;99.90
21039;DHT22;10678;51.002;4.786;2023-05-07T14:45:12;22.70;99.90
21039;DHT22;10678;51.002;4.786;2023-05-07T14:47:38;22.70;99.90
21039;DHT22;10678;51.002;4.786;2023-05-07T14:50:04;22.70;99.90
21039;DHT22;10678;51.002;4.786;2023-05-07T14:52:30;22.30;99.90
21039;DHT22;10678;51.002;4.786;2023-05-07T14:54:55;22.40;99.90
21039;DHT22;10678;51.002;4.786;2023-05-07T14:57:21;22.60;99.90
21039;DHT22;10678;51.002;4.786;2023-05-07T14:59:47;22.90;99.90
21039;DHT22;10678;51.002;4.786;2023-05-07T15:02:13;22.90;99.90
21039;DHT22;10678;51.002;4.786;2023-05-07T15:04:39;22.80;99.90
21039;DHT22;10678;51.002;4.786;2023-05-07T15:07:14;22.70;99.90
21039;DHT22;10678;51.002;4.786;2023-05-07T15:09:41;22.90;99.90
21039;DHT22;10678;51.002;4.786;2023-05-07T15:12:07;22.80;99.90
21039;DHT22;10678;51.002;4.786;2023-05-07T15:14:33;22.80;99.90
21039;DHT22;10678;51.002;4.786;2023-05-07T15:16:58;22.90;99.90
21039;DHT22;10678;51.002;4.786;2023-05-07T15:19:24;22.60;99.90
21039;DHT22;10678;51.002;4.786;2023-05-07T15:21:57;22.60;99.90
21039;DHT22;10678;51.002;4.786;2023-05-07T15:24:24;22.70;99.90
21039;DHT22;10678;51.002;4.786;2023-05-07T15:26:51;22.70;99.90
21039;DHT22;10678;51.002;4.786;2023-05-07T15:29:17;22.60;99.90
21039;DHT22;10678;51.002;4.786;2023-05-07T15:31:42;22.40;99.90
21039;DHT22;10678;51.002;4.786;2023-05-07T15:34:08;22.40;99.90
21039;DHT22;10678;51.002;4.786;2023-05-07T15:36:34;22.40;99.90
21039;DHT22;10678;51.002;4.786;2023-05-07T15:39:00;22.40;99.90
21039;DHT22;10678;51.002;4.786;2023-05-07T15:41:27;22.40;99.90
21039;DHT22;10678;51.002;4.786;2023-05-07T15:43:53;22.20;99.90
21039;DHT22;10678;51.002;4.786;2023-05-07T15:46:23;22.20;99.90
21039;DHT22;10678;51.002;4.786;2023-05-07T15:48:50;22.30;99.90